Time;durP1;ratioP1;P1;durP2;ratioP2;P2;SDS_P1;SDS_P2;PMS_P1;PMS_P2;Temp;Humidity;BMP_temperature;BMP_pressure;BME280_temperature;BME280_humidity;BME280_pressure;Samples;Min_cycle;Max_cycle;Signal;HPM_P1;HPM_P2
2022/11/20 00:00:51;;;;;;;20.13;6.30;;;8.40;99.90;;;;;;5091428;28;20691;-56
2022/11/20 00:03:17;;;;;;;11.97;5.63;;;8.30;99.90;;;;;;5077724;28;20692;-56
2022/11/20 00:05:43;;;;;;;15.33;6.10;;;8.30;99.90;;;;;;5091490;28;20200;-56
2022/11/20 00:08:08;;;;;;;16.63;5.23;;;8.60;99.90;;;;;;5086974;28;20572;-56
2022/11/20 00:10:36;;;;;;;17.83;4.83;;;8.30;99.90;;;;;;5075890;28;20210;-56
2022/11/20 00:13:02;;;;;;;17.23;4.30;;;8.30;99.90;;;;;;5071271;28;20180;-56
2022/11/20 00:15:28;;;;;;;9.07;4.67;;;8.40;99.90;;;;;;5068899;28;20187;-57
2022/11/20 00:17:54;;;;;;;12.07;4.60;;;8.50;99.90;;;;;;5083054;28;20200;-56
2022/11/20 00:20:19;;;;;;;10.60;4.40;;;8.50;99.90;;;;;;5089214;28;21130;-57
2022/11/20 00:22:45;;;;;;;14.83;4.97;;;8.50;99.90;;;;;;5078196;28;20188;-56
2022/11/20 00:25:11;;;;;;;13.07;5.37;;;8.50;99.90;;;;;;5072829;28;20210;-57
2022/11/20 00:27:36;;;;;;;16.50;5.73;;;8.70;99.90;;;;;;5076756;28;20676;-58
2022/11/20 00:30:03;;;;;;;19.50;5.23;;;8.10;99.90;;;;;;5081963;28;20172;-57
2022/11/20 00:32:29;;;;;;;14.70;6.00;;;8.30;99.90;;;;;;5082336;28;20669;-57
2022/11/20 00:34:55;;;;;;;14.17;4.97;;;8.30;99.90;;;;;;5075076;28;20176;-58
2022/11/20 00:37:21;;;;;;;16.73;5.60;;;8.30;99.90;;;;;;5084633;28;20210;-58
2022/11/20 00:39:46;;;;;;;12.87;5.67;;;8.00;99.90;;;;;;5078350;28;20642;-57
2022/11/20 00:42:12;;;;;;;11.30;5.30;;;8.30;99.90;;;;;;5090735;28;20184;-57
2022/11/20 00:44:37;;;;;;;12.77;5.83;;;8.40;99.90;;;;;;5090120;28;20630;-58
2022/11/20 00:47:03;;;;;;;13.97;6.13;;;8.40;99.90;;;;;;5081816;28;20207;-57
2022/11/20 00:49:29;;;;;;;15.20;5.87;;;8.40;99.90;;;;;;5077826;28;20173;-55
2022/11/20 00:51:54;;;;;;;11.97;5.37;;;8.40;99.90;;;;;;5078810;28;20611;-58
2022/11/20 00:54:20;;;;;;;13.83;5.43;;;8.40;99.90;;;;;;5077519;28;20180;-58
2022/11/20 00:56:45;;;;;;;14.77;5.50;;;8.40;99.90;;;;;;5070805;28;20187;-57
2022/11/20 00:59:11;;;;;;;16.17;6.10;;;8.30;99.90;;;;;;5071683;28;20642;-58
2022/11/20 01:01:38;;;;;;;16.13;5.60;;;;;;;;;;5083555;28;20220;-58
2022/11/20 01:04:03;;;;;;;13.27;5.53;;;8.30;99.90;;;;;;5074127;28;20263;-57
2022/11/20 01:06:35;;;;;;;17.33;5.60;;;8.00;99.90;;;;;;5081567;28;20640;-57
2022/11/20 01:09:04;;;;;;;9.73;5.20;;;8.50;99.90;;;;;;5074425;28;20181;-58
2022/11/20 01:11:33;;;;;;;18.10;6.17;;;8.10;99.90;;;;;;5071271;28;20184;-58
2022/11/20 01:14:01;;;;;;;16.43;5.73;;;8.30;99.90;;;;;;5070564;28;20175;-57
2022/11/20 01:16:48;;;;;;;15.30;5.77;;;8.30;99.90;;;;;;5070450;28;20179;-58
2022/11/20 01:19:18;;;;;;;12.50;5.80;;;8.10;99.90;;;;;;5070249;28;20164;-57
2022/11/20 01:21:45;;;;;;;16.13;5.87;;;8.40;99.90;;;;;;5074322;28;20212;-57
2022/11/20 01:24:15;;;;;;;14.67;6.30;;;8.50;99.90;;;;;;5077667;28;20183;-57
2022/11/20 01:26:42;;;;;;;14.20;6.40;;;8.50;99.90;;;;;;5086109;28;20180;-57
2022/11/20 01:29:14;;;;;;;14.40;6.00;;;8.40;99.90;;;;;;5073760;28;20180;-58
2022/11/20 01:31:40;;;;;;;13.40;5.97;;;;;;;;;;5090258;28;20184;-56
2022/11/20 01:34:15;;;;;;;12.93;5.57;;;8.40;99.90;;;;;;5085016;28;20526;-56
2022/11/20 01:36:42;;;;;;;12.10;5.50;;;8.40;99.90;;;;;;5077875;28;20204;-56
2022/11/20 01:39:12;;;;;;;11.73;5.97;;;8.40;99.90;;;;;;5080470;28;20192;-57
2022/11/20 01:44:42;;;;;;;12.63;5.33;;;8.60;99.90;;;;;;5093937;28;20171;-56
2022/11/20 01:47:11;;;;;;;13.53;4.90;;;8.50;99.90;;;;;;5073780;28;20180;-57
2022/11/20 01:49:42;;;;;;;10.80;4.63;;;8.60;99.90;;;;;;5073659;28;20169;-57
2022/11/20 01:52:17;;;;;;;14.50;4.77;;;8.60;99.90;;;;;;5074129;28;20172;-57
2022/11/20 01:54:49;;;;;;;10.43;4.43;;;8.60;99.90;;;;;;5073820;28;20207;-56
2022/11/20 01:57:17;;;;;;;9.13;4.33;;;8.40;99.90;;;;;;5074616;28;20180;-57
2022/11/20 01:59:48;;;;;;;9.20;4.30;;;8.70;99.90;;;;;;5090266;28;20207;-56
2022/11/20 02:02:14;;;;;;;9.57;4.00;;;8.60;99.90;;;;;;5088804;28;20244;-57
2022/11/20 02:04:40;;;;;;;7.90;4.20;;;8.70;99.90;;;;;;5077384;28;20215;-56
2022/11/20 02:07:06;;;;;;;10.33;4.80;;;8.60;99.90;;;;;;5073703;28;20168;-56
2022/11/20 02:09:32;;;;;;;11.87;4.83;;;;;;;;;;5078721;28;20175;-56
2022/11/20 02:11:58;;;;;;;10.67;6.00;;;8.80;99.90;;;;;;5090255;28;20187;-57
2022/11/20 02:14:25;;;;;;;11.53;5.70;;;8.60;99.90;;;;;;5093701;28;20232;-56
2022/11/20 02:16:51;;;;;;;15.30;6.40;;;8.60;99.90;;;;;;5093681;28;20179;-56
2022/11/20 02:19:31;;;;;;;11.93;6.00;;;8.80;99.90;;;;;;5090844;28;20199;-56
2022/11/20 02:21:57;;;;;;;9.80;5.47;;;;;;;;;;5082676;28;20203;-56
2022/11/20 02:24:23;;;;;;;12.97;5.20;;;8.60;99.90;;;;;;5089399;28;20176;-56
2022/11/20 02:27:11;;;;;;;10.53;3.97;;;8.40;99.90;;;;;;5080914;28;20183;-56
2022/11/20 02:29:48;;;;;;;6.87;3.73;;;9.00;99.90;;;;;;5093141;28;20235;-56
2022/11/20 02:32:19;;;;;;;5.27;1.80;;;8.40;99.90;;;;;;5085815;28;20168;-57
2022/11/20 02:34:45;;;;;;;6.73;2.70;;;9.10;99.90;;;;;;5079493;28;20177;-56
2022/11/20 02:37:11;;;;;;;1.53;1.27;;;9.00;99.90;;;;;;5073401;28;20177;-57
2022/11/20 02:39:37;;;;;;;1.40;1.10;;;9.00;99.90;;;;;;5080074;28;20291;-56
2022/11/20 02:42:03;;;;;;;3.17;1.37;;;;;;;;;;5085980;28;20228;-56
2022/11/20 02:44:29;;;;;;;1.97;1.63;;;;;;;;;;5073561;28;20183;-56
2022/11/20 02:46:58;;;;;;;3.17;1.47;;;9.20;99.90;;;;;;5078077;28;20176;-56
2022/11/20 02:49:24;;;;;;;5.90;1.93;;;9.00;99.90;;;;;;5072733;28;20183;-56
2022/11/20 02:51:50;;;;;;;5.00;2.27;;;8.90;99.90;;;;;;5086242;28;20211;-57
2022/11/20 02:54:15;;;;;;;3.73;2.17;;;9.10;99.90;;;;;;5078783;28;20181;-56
2022/11/20 02:56:41;;;;;;;3.20;2.00;;;8.80;99.90;;;;;;5085367;28;20180;-56
2022/11/20 02:59:07;;;;;;;5.83;2.10;;;9.10;99.90;;;;;;5072558;28;20643;-57
2022/11/20 03:01:33;;;;;;;2.10;1.67;;;9.10;99.90;;;;;;5083505;28;20211;-56
2022/11/20 03:03:58;;;;;;;2.57;1.57;;;9.20;99.90;;;;;;5081300;28;20172;-56
2022/11/20 03:06:24;;;;;;;2.73;1.30;;;9.10;99.90;;;;;;5090748;28;20168;-56
2022/11/20 03:08:50;;;;;;;1.27;1.00;;;;;;;;;;5072390;28;20176;-56
2022/11/20 03:11:16;;;;;;;3.00;1.10;;;9.10;99.90;;;;;;5090409;28;20638;-56
2022/11/20 03:13:42;;;;;;;1.03;0.70;;;9.50;99.90;;;;;;5082598;28;20658;-56
2022/11/20 03:16:19;;;;;;;1.40;1.00;;;9.10;99.90;;;;;;5077362;28;20310;-56
2022/11/20 03:18:45;;;;;;;1.97;0.73;;;9.00;99.90;;;;;;5092210;28;20179;-56
2022/11/20 03:21:12;;;;;;;1.30;1.10;;;9.10;99.90;;;;;;5075358;28;20212;-56
2022/11/20 03:23:38;;;;;;;2.43;1.10;;;9.30;99.90;;;;;;5074504;28;20251;-56
2022/11/20 03:26:09;;;;;;;1.20;0.97;;;9.50;99.90;;;;;;5072446;28;20179;-56
2022/11/20 03:28:35;;;;;;;2.30;1.20;;;9.40;99.90;;;;;;5086140;28;20639;-56
2022/11/20 03:31:12;;;;;;;1.20;0.90;;;9.40;99.90;;;;;;5071836;28;20180;-57
2022/11/20 03:33:40;;;;;;;1.10;1.00;;;9.30;99.90;;;;;;5071997;28;20180;-57
2022/11/20 03:36:11;;;;;;;3.73;1.03;;;9.10;99.90;;;;;;5075757;28;20167;-57
2022/11/20 03:38:38;;;;;;;2.53;1.43;;;9.20;99.90;;;;;;5091882;28;20181;-57
2022/11/20 03:41:09;;;;;;;2.20;1.40;;;9.20;99.90;;;;;;5090444;28;20219;-56
2022/11/20 03:43:36;;;;;;;1.90;1.27;;;9.10;99.90;;;;;;5080785;28;20183;-57
2022/11/20 03:46:02;;;;;;;1.90;1.30;;;9.00;99.90;;;;;;5079582;28;20643;-56
2022/11/20 03:48:28;;;;;;;3.70;1.33;;;9.10;99.90;;;;;;5075193;28;20236;-57
2022/11/20 03:51:26;;;;;;;1.87;1.60;;;9.10;99.90;;;;;;5082735;28;20686;-57
2022/11/20 03:53:54;;;;;;;2.50;1.50;;;9.20;99.90;;;;;;5089872;28;20183;-56
2022/11/20 03:56:25;;;;;;;2.30;1.50;;;9.20;99.90;;;;;;5073855;28;20210;-57
2022/11/20 03:58:51;;;;;;;2.97;1.30;;;9.20;99.90;;;;;;5070747;28;20181;-57
2022/11/20 04:01:19;;;;;;;3.00;1.60;;;9.30;99.90;;;;;;5079681;28;20474;-57
2022/11/20 04:03:45;;;;;;;1.97;1.17;;;9.20;99.90;;;;;;5076145;28;20172;-56
2022/11/20 04:06:20;;;;;;;3.33;1.10;;;9.20;99.90;;;;;;5074204;28;20184;-57
2022/11/20 04:08:45;;;;;;;2.97;1.17;;;9.20;99.90;;;;;;5070960;28;20192;-57
2022/11/20 04:11:20;;;;;;;3.40;0.87;;;9.20;99.90;;;;;;5071285;28;20168;-57
2022/11/20 04:13:48;;;;;;;2.43;0.63;;;9.10;99.90;;;;;;5071398;28;20217;-57
2022/11/20 04:16:16;;;;;;;2.47;1.00;;;9.30;99.90;;;;;;5071578;28;20169;-57
2022/11/20 04:18:43;;;;;;;2.57;0.87;;;9.50;99.90;;;;;;5070204;28;20642;-57
2022/11/20 04:21:09;;;;;;;1.40;0.63;;;9.10;99.90;;;;;;5083964;28;20681;-57
2022/11/20 04:23:35;;;;;;;2.23;0.83;;;9.30;99.90;;;;;;5089911;28;20172;-57
2022/11/20 04:26:09;;;;;;;1.70;0.50;;;9.30;99.90;;;;;;5091372;28;20176;-58
2022/11/20 04:28:35;;;;;;;1.73;0.60;;;;;;;;;;5071135;28;20169;-57
2022/11/20 04:31:06;;;;;;;3.87;0.63;;;9.10;99.90;;;;;;5071005;28;20703;-57
2022/11/20 04:33:32;;;;;;;1.57;0.60;;;9.60;99.90;;;;;;5070985;28;20230;-57
2022/11/20 04:36:05;;;;;;;2.70;0.73;;;9.30;99.90;;;;;;5071035;28;20540;-57
2022/11/20 04:38:30;;;;;;;7.77;1.00;;;9.20;99.90;;;;;;5071016;28;20177;-57
2022/11/20 04:41:01;;;;;;;5.93;1.00;;;9.50;99.90;;;;;;5052739;28;20236;-57
2022/11/20 04:43:27;;;;;;;5.27;1.00;;;9.40;99.90;;;;;;5090564;28;20180;-57
2022/11/20 04:45:56;;;;;;;5.93;1.10;;;9.50;99.90;;;;;;5080930;28;20225;-58
2022/11/20 04:48:23;;;;;;;3.67;1.10;;;9.50;99.90;;;;;;5089864;28;20190;-58
2022/11/20 04:50:49;;;;;;;6.87;0.93;;;9.40;99.90;;;;;;5072426;28;20191;-57
2022/11/20 04:53:14;;;;;;;5.20;0.97;;;9.40;99.90;;;;;;5074352;28;20168;-58
2022/11/20 04:55:40;;;;;;;4.03;1.00;;;9.40;99.90;;;;;;5080846;28;20187;-57
2022/11/20 04:58:06;;;;;;;4.67;1.30;;;9.30;99.90;;;;;;5087142;28;20168;-57
2022/11/20 05:00:32;;;;;;;7.57;1.10;;;9.30;99.90;;;;;;5078551;28;20251;-58
2022/11/20 05:02:57;;;;;;;4.10;1.20;;;9.20;99.90;;;;;;5081175;28;20176;-58
2022/11/20 05:05:23;;;;;;;3.93;1.07;;;9.20;99.90;;;;;;5090834;28;20183;-58
2022/11/20 05:07:49;;;;;;;5.00;1.20;;;9.10;99.90;;;;;;5084348;28;20219;-57
2022/11/20 05:10:15;;;;;;;5.00;1.07;;;9.00;99.90;;;;;;5074787;28;20172;-57
2022/11/20 05:12:40;;;;;;;6.60;1.30;;;9.00;99.90;;;;;;5078821;28;20217;-58
2022/11/20 05:15:06;;;;;;;4.57;1.30;;;9.00;99.90;;;;;;5080255;28;20184;-57
2022/11/20 05:17:32;;;;;;;3.00;1.10;;;8.90;99.90;;;;;;5084034;28;20180;-58
2022/11/20 05:19:58;;;;;;;5.47;1.40;;;8.90;99.90;;;;;;5079168;28;20625;-57
2022/11/20 05:22:23;;;;;;;7.90;1.60;;;8.80;99.90;;;;;;5093112;28;20202;-58
2022/11/20 05:24:49;;;;;;;4.83;1.27;;;8.70;99.90;;;;;;5082343;28;20188;-58
2022/11/20 05:27:15;;;;;;;5.50;1.37;;;8.60;99.90;;;;;;5079541;28;20513;-57
2022/11/20 05:29:40;;;;;;;10.70;1.30;;;8.60;99.90;;;;;;5084924;28;20184;-57
2022/11/20 05:32:08;;;;;;;7.50;1.70;;;8.60;99.90;;;;;;5074264;28;20225;-57
2022/11/20 05:34:34;;;;;;;5.53;1.50;;;8.60;99.90;;;;;;5075275;28;20196;-57
2022/11/20 05:36:59;;;;;;;5.23;1.43;;;8.60;99.90;;;;;;5086430;28;20648;-57
2022/11/20 05:39:25;;;;;;;4.70;1.53;;;;;;;;;;5091422;28;20172;-57
2022/11/20 05:42:29;;;;;;;9.20;2.20;;;9.30;99.90;;;;;;5077395;28;20794;-57
2022/11/20 05:44:37;;;;;;;9.60;2.17;;;8.50;99.90;;;;;;5075453;28;20538;-58
2022/11/20 05:47:02;;;;;;;7.50;2.20;;;8.50;99.90;;;;;;5094165;28;20251;-57
2022/11/20 05:49:28;;;;;;;5.87;1.97;;;8.30;99.90;;;;;;5092556;28;20183;-57
2022/11/20 05:51:53;;;;;;;7.90;2.00;;;8.30;99.90;;;;;;5092416;28;20180;-57
2022/11/20 05:54:19;;;;;;;7.03;1.83;;;8.30;99.90;;;;;;5081381;28;20581;-57
2022/11/20 05:56:44;;;;;;;7.77;2.00;;;8.20;99.90;;;;;;5075131;28;20172;-57
2022/11/20 05:59:10;;;;;;;6.27;2.10;;;8.20;99.90;;;;;;5093888;28;20642;-57
2022/11/20 06:01:36;;;;;;;9.33;2.53;;;8.10;99.90;;;;;;5092120;28;20215;-56
2022/11/20 06:04:01;;;;;;;6.40;2.20;;;8.20;99.90;;;;;;5078831;28;20548;-57
2022/11/20 06:06:27;;;;;;;6.87;2.33;;;8.10;99.90;;;;;;5077673;28;20184;-57
2022/11/20 06:08:54;;;;;;;9.67;2.07;;;8.00;99.90;;;;;;5093074;28;20625;-57
2022/11/20 06:11:19;;;;;;;10.67;2.13;;;8.10;99.90;;;;;;5093479;28;20669;-57
2022/11/20 06:13:45;;;;;;;10.23;2.43;;;8.10;99.90;;;;;;5093884;28;20196;-57
2022/11/20 06:16:13;;;;;;;16.30;2.60;;;7.80;99.90;;;;;;5080766;28;20271;-57
2022/11/20 06:18:39;;;;;;;12.07;2.83;;;7.90;99.90;;;;;;5093882;28;20176;-59
2022/11/20 06:21:08;;;;;;;19.10;2.97;;;7.90;99.90;;;;;;5092632;28;20717;-56
2022/11/20 06:23:34;;;;;;;14.10;2.60;;;7.90;99.90;;;;;;5087876;28;20176;-56
2022/11/20 06:26:09;;;;;;;25.57;2.83;;;7.90;99.90;;;;;;5077760;28;20172;-57
2022/11/20 06:28:35;;;;;;;14.60;2.63;;;;;;;;;;5083029;28;20705;-57
2022/11/20 06:31:01;;;;;;;19.97;2.70;;;7.80;99.90;;;;;;5087622;28;20246;-56
2022/11/20 06:33:28;;;;;;;25.70;3.57;;;7.50;99.90;;;;;;5093009;28;20634;-57
2022/11/20 06:35:57;;;;;;;23.57;2.90;;;7.90;99.90;;;;;;5081537;28;20188;-56
2022/11/20 06:38:24;;;;;;;17.80;3.20;;;7.80;99.90;;;;;;5080000;28;20181;-58
2022/11/20 06:40:49;;;;;;;14.67;3.07;;;7.60;99.90;;;;;;5072027;28;20217;-57
2022/11/20 06:43:15;;;;;;;11.07;2.73;;;7.70;99.90;;;;;;5073058;28;20192;-57
2022/11/20 06:45:41;;;;;;;14.67;3.00;;;;;;;;;;5078037;28;20191;-57
2022/11/20 06:48:07;;;;;;;13.97;3.10;;;7.60;99.90;;;;;;5073043;28;20185;-57
2022/11/20 06:50:32;;;;;;;21.97;3.33;;;7.50;99.90;;;;;;5086429;28;20661;-57
2022/11/20 06:53:02;;;;;;;20.70;3.40;;;7.50;99.90;;;;;;5077256;28;20185;-57
2022/11/20 06:55:28;;;;;;;20.60;3.57;;;7.60;99.90;;;;;;5072667;28;20249;-56
2022/11/20 06:57:53;;;;;;;22.70;3.37;;;7.80;99.90;;;;;;5072800;28;20582;-57
2022/11/20 07:00:19;;;;;;;23.90;4.17;;;7.10;99.90;;;;;;5072444;28;20259;-57
2022/11/20 07:02:44;;;;;;;22.57;3.37;;;7.40;99.90;;;;;;5080353;28;20167;-57
2022/11/20 07:05:10;;;;;;;33.70;3.40;;;7.40;99.90;;;;;;5078498;28;20177;-57
2022/11/20 07:07:36;;;;;;;21.93;3.87;;;7.40;99.90;;;;;;5075636;28;20553;-58
2022/11/20 07:10:02;;;;;;;29.93;4.47;;;;;;;;;;5083022;28;20177;-57
2022/11/20 07:12:27;;;;;;;27.40;4.63;;;7.40;99.90;;;;;;5081155;28;20216;-57
2022/11/20 07:14:53;;;;;;;20.90;3.70;;;7.20;99.90;;;;;;5072236;28;20214;-57
2022/11/20 07:17:19;;;;;;;19.00;4.03;;;7.30;99.90;;;;;;5072468;28;20173;-57
2022/11/20 07:19:44;;;;;;;17.53;3.10;;;7.20;99.90;;;;;;5070813;28;20200;-57
2022/11/20 07:22:10;;;;;;;19.97;3.73;;;7.00;99.90;;;;;;5070706;28;20269;-56
2022/11/20 07:24:35;;;;;;;18.37;3.70;;;7.20;99.90;;;;;;5084874;28;20191;-61
2022/11/20 07:27:01;;;;;;;46.57;3.83;;;7.20;99.90;;;;;;5090056;28;20186;-56
2022/11/20 07:29:27;;;;;;;25.67;4.33;;;;;;;;;;5091706;28;20214;-57
2022/11/20 07:31:55;;;;;;;31.83;4.43;;;;;;;;;;5090107;28;20180;-58
2022/11/20 07:34:21;;;;;;;32.33;4.10;;;6.90;99.90;;;;;;5076202;28;20251;-57
2022/11/20 07:36:46;;;;;;;44.03;4.40;;;7.50;99.90;;;;;;5075017;28;20306;-58
2022/11/20 07:39:12;;;;;;;32.47;4.03;;;7.60;99.90;;;;;;5082824;28;20172;-57
2022/11/20 07:41:37;;;;;;;30.63;4.43;;;7.60;99.90;;;;;;5106300;28;20637;-58
2022/11/20 07:44:03;;;;;;;37.03;4.70;;;7.20;99.90;;;;;;5089575;28;20174;-58
2022/11/20 07:46:29;;;;;;;23.90;4.10;;;7.60;99.90;;;;;;5091969;28;20252;-58
2022/11/20 07:48:54;;;;;;;41.10;5.17;;;7.60;99.90;;;;;;5087523;28;20169;-59
2022/11/20 07:51:20;;;;;;;31.67;4.00;;;7.80;99.90;;;;;;5084310;28;20203;-59
2022/11/20 07:53:46;;;;;;;35.60;4.47;;;;;;;;;;5091531;28;20672;-58
2022/11/20 07:56:13;;;;;;;24.83;4.30;;;;;;;;;;5091678;28;20210;-58
2022/11/20 07:58:40;;;;;;;24.80;4.33;;;;;;;;;;5091755;28;20179;-59
2022/11/20 08:01:07;;;;;;;30.10;4.20;;;7.50;99.90;;;;;;5091578;28;20204;-58
2022/11/20 08:03:33;;;;;;;32.30;4.60;;;7.40;99.90;;;;;;5091422;28;20251;-59
2022/11/20 08:06:02;;;;;;;27.00;4.00;;;7.30;99.90;;;;;;5091654;28;20649;-63
2022/11/20 08:08:28;;;;;;;37.97;5.00;;;7.20;99.90;;;;;;5088732;28;20186;-59
2022/11/20 08:14:11;;;;;;;28.63;4.40;;;7.60;99.90;;;;;;5089021;28;20171;-58
2022/11/20 08:16:25;;;;;;;31.53;5.47;;;7.20;99.90;;;;;;5083149;28;20214;-58
2022/11/20 08:18:51;;;;;;;25.50;4.40;;;7.30;99.90;;;;;;5078278;28;20192;-59
2022/11/20 08:21:17;;;;;;;32.33;4.90;;;7.20;99.90;;;;;;5089252;28;20282;-59
2022/11/20 08:23:42;;;;;;;24.40;4.03;;;7.30;99.90;;;;;;5085872;28;20565;-59
2022/11/20 08:26:08;;;;;;;17.53;4.07;;;7.30;99.90;;;;;;5090344;28;20172;-59
2022/11/20 08:28:33;;;;;;;27.37;4.37;;;7.30;99.90;;;;;;5090570;28;20630;-59
2022/11/20 08:31:00;;;;;;;21.67;3.63;;;7.80;99.90;;;;;;5090439;28;20171;-59
2022/11/20 08:33:26;;;;;;;21.23;3.60;;;7.50;99.90;;;;;;5089300;28;20180;-59
2022/11/20 08:35:52;;;;;;;20.37;3.37;;;7.40;99.90;;;;;;5090185;28;20190;-59
2022/11/20 08:38:18;;;;;;;30.53;4.00;;;7.40;99.90;;;;;;5072835;28;20164;-59
2022/11/20 08:41:23;;;;;;;36.07;4.30;;;7.50;99.90;;;;;;5088539;28;20215;-59
2022/11/20 08:43:33;;;;;;;31.97;3.77;;;;;;;;;;5090072;28;20199;-59
2022/11/20 08:45:59;;;;;;;21.13;3.70;;;;;;;;;;5084069;28;20229;-57
2022/11/20 08:48:25;;;;;;;26.87;4.40;;;8.30;99.90;;;;;;5070739;28;20177;-58
2022/11/20 08:50:50;;;;;;;34.93;4.67;;;9.30;99.90;;;;;;5070964;28;20232;-59
2022/11/20 08:53:16;;;;;;;25.17;4.40;;;9.20;99.90;;;;;;5070930;28;20226;-58
2022/11/20 08:55:41;;;;;;;35.23;4.63;;;9.40;99.90;;;;;;5070805;28;20207;-56
2022/11/20 08:58:07;;;;;;;34.30;4.40;;;9.70;99.90;;;;;;5070715;28;20681;-56
2022/11/20 09:00:33;;;;;;;23.57;3.97;;;10.30;99.90;;;;;;5070580;28;20208;-56
2022/11/20 09:03:00;;;;;;;29.00;4.60;;;;;;;;;;5070016;28;20196;-55
2022/11/20 09:05:26;;;;;;;33.00;4.07;;;11.10;99.90;;;;;;5070641;28;20165;-55
2022/11/20 09:07:55;;;;;;;35.53;4.17;;;10.90;99.90;;;;;;5075700;28;20198;-55
2022/11/20 09:10:21;;;;;;;18.67;3.77;;;;;;;;;;5090521;28;20198;-55
2022/11/20 09:12:49;;;;;;;33.80;4.57;;;11.10;99.90;;;;;;5088339;28;20246;-56
2022/11/20 09:15:15;;;;;;;35.43;3.90;;;;;;;;;;5081377;28;20553;-56
2022/11/20 09:17:40;;;;;;;32.53;5.10;;;11.20;99.90;;;;;;5085064;28;20215;-56
2022/11/20 09:20:06;;;;;;;26.33;4.23;;;11.20;99.90;;;;;;5090208;28;20650;-56
2022/11/20 09:22:32;;;;;;;33.83;5.37;;;11.10;99.90;;;;;;5070153;28;20596;-55
2022/11/20 09:24:58;;;;;;;35.67;4.83;;;10.90;99.90;;;;;;5085336;28;20179;-55
2022/11/20 09:27:23;;;;;;;30.57;4.23;;;10.80;99.90;;;;;;5052301;28;20172;-55
2022/11/20 09:29:49;;;;;;;32.40;4.63;;;10.70;99.90;;;;;;5070280;28;20180;-56
2022/11/20 09:32:15;;;;;;;30.37;5.30;;;10.60;99.90;;;;;;5070592;28;20242;-56
2022/11/20 09:34:40;;;;;;;32.67;4.63;;;10.60;99.90;;;;;;5070519;28;20703;-55
2022/11/20 09:37:06;;;;;;;31.83;4.67;;;10.70;99.90;;;;;;5079267;28;20669;-55
2022/11/20 09:39:31;;;;;;;40.33;4.40;;;11.50;99.90;;;;;;5078939;28;20237;-55
2022/11/20 09:42:04;;;;;;;30.43;4.87;;;11.60;99.90;;;;;;5076990;28;20212;-55
2022/11/20 09:45:01;;;;;;;40.13;5.37;;;11.30;99.90;;;;;;5085591;28;20642;-55
2022/11/20 09:47:47;;;;;;;26.33;5.13;;;11.30;99.90;;;;;;5046237;28;20185;-55
2022/11/20 09:50:16;;;;;;;29.43;4.67;;;11.40;99.90;;;;;;5073858;28;20180;-55
2022/11/20 09:52:47;;;;;;;39.30;5.53;;;11.40;99.90;;;;;;5073594;28;20186;-55
2022/11/20 09:55:14;;;;;;;25.53;4.73;;;11.50;99.90;;;;;;5073490;28;20172;-57
2022/11/20 09:57:44;;;;;;;41.10;5.40;;;11.70;99.90;;;;;;5055926;28;20259;-55
2022/11/20 10:00:12;;;;;;;29.13;4.43;;;11.70;99.90;;;;;;5073586;28;20181;-55
2022/11/20 10:02:52;;;;;;;30.43;4.70;;;11.60;99.90;;;;;;5073827;28;20168;-55
2022/11/20 10:05:25;;;;;;;31.60;4.20;;;11.80;99.90;;;;;;5090906;28;20646;-55
2022/11/20 10:08:16;;;;;;;40.03;5.13;;;11.70;99.90;;;;;;5093661;28;20637;-55
2022/11/20 10:10:49;;;;;;;37.53;4.70;;;12.20;99.90;;;;;;5087358;28;20233;-55
2022/11/20 10:13:15;;;;;;;31.30;4.73;;;;;;;;;;5087897;28;20250;-55
2022/11/20 10:16:08;;;;;;;40.23;4.67;;;12.50;99.90;;;;;;5093562;28;20176;-55
2022/11/20 10:19:23;;;;;;;36.17;5.17;;;12.60;99.90;;;;;;5093576;28;20251;-57
2022/11/20 10:22:10;;;;;;;28.53;4.73;;;12.50;99.90;;;;;;5066727;28;20236;-55
2022/11/20 10:24:41;;;;;;;30.57;5.37;;;12.50;99.90;;;;;;5077902;28;20639;-55
2022/11/20 10:27:15;;;;;;;28.92;5.30;;;12.90;99.90;;;;;;5089985;28;20336;-55
2022/11/20 10:29:47;;;;;;;24.37;4.10;;;12.90;99.90;;;;;;5093230;28;20163;-55
2022/11/20 10:32:19;;;;;;;24.07;4.20;;;13.30;99.90;;;;;;5093265;28;20172;-56
2022/11/20 10:35:05;;;;;;;24.40;3.97;;;14.10;99.90;;;;;;5092949;28;20176;-55
2022/11/20 10:37:33;;;;;;;24.83;3.30;;;14.70;99.90;;;;;;5092821;28;20176;-55
2022/11/20 10:40:21;;;;;;;29.67;4.15;;;15.20;99.90;;;;;;5087802;28;20228;-55
2022/11/20 10:42:50;;;;;;;28.40;4.40;;;16.50;99.90;;;;;;5072460;28;20820;-55
2022/11/20 10:45:25;;;;;;;30.90;3.75;;;16.90;99.90;;;;;;5073043;28;20242;-55
2022/11/20 10:48:31;;;;;;;29.42;4.43;;;17.70;99.90;;;;;;5080660;28;20222;-55
2022/11/20 10:51:07;;;;;;;19.65;3.38;;;16.80;99.90;;;;;;5084546;28;20180;-55
2022/11/20 10:54:01;;;;;;;18.73;3.13;;;16.80;99.90;;;;;;5091319;28;20187;-55
2022/11/20 10:56:41;;;;;;;17.95;3.10;;;15.80;99.90;;;;;;5088593;28;20650;-55
2022/11/20 10:59:19;;;;;;;24.10;3.58;;;16.30;99.90;;;;;;5092498;28;20182;-55
2022/11/20 11:01:44;;;;;;;27.98;4.10;;;17.70;99.90;;;;;;5072154;28;20216;-55
2022/11/20 11:04:19;;;;;;;23.63;3.47;;;17.80;99.90;;;;;;5072047;28;20661;-55
2022/11/20 11:06:48;;;;;;;20.15;4.20;;;18.90;99.90;;;;;;5064769;28;20200;-56
2022/11/20 11:09:21;;;;;;;20.75;3.33;;;20.30;99.90;;;;;;5080860;28;20241;-56
2022/11/20 11:11:47;;;;;;;13.95;2.88;;;20.60;99.90;;;;;;5087840;28;20242;-56
2022/11/20 11:14:14;;;;;;;24.95;3.60;;;19.30;99.90;;;;;;5089097;28;20191;-56
2022/11/20 11:16:55;;;;;;;17.77;3.72;;;19.60;99.90;;;;;;5072593;28;20180;-55
2022/11/20 11:19:21;;;;;;;22.13;3.63;;;19.90;99.90;;;;;;5080568;28;20171;-56
2022/11/20 11:21:54;;;;;;;16.80;3.30;;;22.00;99.90;;;;;;5090750;28;20207;-56
2022/11/20 11:24:25;;;;;;;16.13;3.53;;;21.90;99.90;;;;;;5091919;28;20169;-56
2022/11/20 11:27:04;;;;;;;10.40;3.13;;;23.40;99.90;;;;;;5092107;28;20175;-55
2022/11/20 11:29:30;;;;;;;18.08;3.47;;;23.50;99.90;;;;;;5092042;28;20213;-55
2022/11/20 11:32:13;;;;;;;18.55;3.17;;;23.80;99.90;;;;;;5091515;28;20175;-56
2022/11/20 11:34:38;;;;;;;18.55;3.47;;;24.40;99.90;;;;;;5091385;28;20167;-56
2022/11/20 11:37:10;;;;;;;16.67;3.38;;;24.20;99.90;;;;;;5091623;28;20167;-56
2022/11/20 11:39:36;;;;;;;21.45;3.63;;;24.40;99.90;;;;;;5080049;28;20196;-55
2022/11/20 11:42:02;;;;;;;23.55;4.22;;;;;;;;;;5089044;28;20219;-55
2022/11/20 11:47:30;;;;;;;22.45;4.30;;;19.70;99.90;;;;;;5082427;28;20231;-56
2022/11/20 11:50:08;;;;;;;20.05;4.40;;;21.00;99.90;;;;;;5079117;28;20187;-56
2022/11/20 11:52:44;;;;;;;20.85;3.65;;;18.40;99.90;;;;;;5071063;28;20177;-56
2022/11/20 11:55:17;;;;;;;13.90;3.97;;;17.60;99.90;;;;;;5074854;28;20200;-56
2022/11/20 11:57:47;;;;;;;19.23;3.55;;;16.30;99.90;;;;;;5070389;28;20247;-56
2022/11/20 12:00:19;;;;;;;18.98;4.00;;;14.50;99.90;;;;;;5073432;28;20246;-56
2022/11/20 12:02:44;;;;;;;26.45;5.10;;;13.90;99.90;;;;;;5079112;28;20208;-56
2022/11/20 12:05:36;;;;;;;21.27;3.40;;;13.90;99.90;;;;;;5098686;28;20178;-56
2022/11/20 12:08:23;;;;;;;34.78;4.68;;;13.10;99.90;;;;;;5076174;28;20741;-56
2022/11/20 12:10:57;;;;;;;27.73;3.75;;;13.00;99.90;;;;;;5071600;28;20176;-55
2022/11/20 12:13:41;;;;;;;25.43;4.00;;;12.40;99.90;;;;;;5071139;28;20230;-55
2022/11/20 12:16:14;;;;;;;23.07;3.57;;;11.40;99.90;;;;;;5070418;28;20252;-55
2022/11/20 12:18:42;;;;;;;25.73;4.17;;;11.20;99.90;;;;;;5070776;28;20164;-55
2022/11/20 12:21:22;;;;;;;24.53;3.90;;;11.30;99.90;;;;;;5071298;28;20290;-54
2022/11/20 12:24:00;;;;;;;23.07;3.77;;;11.10;99.90;;;;;;5069430;28;20626;-57
2022/11/20 12:26:39;;;;;;;24.73;1.97;;;10.90;99.90;;;;;;5069088;28;20819;-55
2022/11/20 12:29:31;;;;;;;15.33;1.70;;;10.80;99.90;;;;;;5078740;28;20186;-55
2022/11/20 12:32:14;;;;;;;17.67;2.00;;;10.60;99.90;;;;;;5090697;28;20179;-55
2022/11/20 12:35:01;;;;;;;18.40;2.00;;;10.70;99.90;;;;;;5079622;28;20184;-56
2022/11/20 12:37:37;;;;;;;15.33;1.50;;;10.70;99.90;;;;;;5070483;28;20646;-56
2022/11/20 12:40:51;;;;;;;19.17;1.97;;;13.70;99.90;;;;;;5086269;28;20290;-56
2022/11/20 12:46:39;;;;;;;12.47;2.43;;;13.40;99.90;;;;;;5091193;28;20188;-56
2022/11/20 12:49:26;;;;;;;11.53;2.00;;;12.80;99.90;;;;;;5087735;28;20190;-56
2022/11/20 12:52:11;;;;;;;18.20;2.27;;;12.30;99.90;;;;;;5068656;28;20306;-56
2022/11/20 12:54:43;;;;;;;9.83;1.87;;;12.10;99.90;;;;;;5068952;28;20191;-56
2022/11/20 12:57:24;;;;;;;13.13;1.90;;;12.20;99.90;;;;;;5086095;28;20195;-57
2022/11/20 13:00:13;;;;;;;17.97;2.10;;;13.90;99.90;;;;;;5089103;28;20171;-57
2022/11/20 13:02:57;;;;;;;10.77;1.90;;;14.10;99.90;;;;;;5089378;28;20286;-55
2022/11/20 13:05:49;;;;;;;14.47;2.53;;;13.90;99.90;;;;;;5090461;28;20168;-55
2022/11/20 13:08:23;;;;;;;8.63;1.40;;;14.40;99.90;;;;;;5090527;28;20176;-56
2022/11/20 13:11:02;;;;;;;10.90;1.53;;;12.90;99.90;;;;;;5077261;28;20195;-56
2022/11/20 13:13:47;;;;;;;8.57;2.00;;;12.60;99.90;;;;;;5090684;28;20172;-56
2022/11/20 13:16:52;;;;;;;9.50;1.67;;;15.00;99.90;;;;;;5090447;28;20201;-55
2022/11/20 13:19:18;;;;;;;10.73;1.70;;;14.20;99.90;;;;;;5094236;28;20653;-55